Time;durP1;ratioP1;P1;durP2;ratioP2;P2;SDS_P1;SDS_P2;PMS_P1;PMS_P2;Temp;Humidity;BMP_temperature;BMP_pressure;BME280_temperature;BME280_humidity;BME280_pressure;Samples;Min_cycle;Max_cycle;Signal;HPM_P1;HPM_P2
2021/12/04 00:00:27;;;;;;;52.75;29.08;;;4.60;99.90;;;;;;6277578;22;20049;-77
2021/12/04 00:02:53;;;;;;;51.38;28.55;;;4.60;99.90;;;;;;6277193;22;20072;-77
2021/12/04 00:05:20;;;;;;;53.20;29.48;;;4.60;99.90;;;;;;6251821;22;20086;-77
2021/12/04 00:07:46;;;;;;;57.20;29.90;;;4.60;99.90;;;;;;6251160;22;20015;-77
2021/12/04 00:10:17;;;;;;;56.33;30.30;;;4.60;99.90;;;;;;6250571;22;20030;-77
2021/12/04 00:12:43;;;;;;;60.80;29.90;;;4.60;99.90;;;;;;6277427;22;20064;-77
2021/12/04 00:15:10;;;;;;;56.70;29.27;;;4.60;99.90;;;;;;6278510;22;20015;-77
2021/12/04 00:17:35;;;;;;;66.65;31.50;;;4.60;99.90;;;;;;6251985;22;20670;-77
2021/12/04 00:20:05;;;;;;;70.07;31.25;;;4.60;99.90;;;;;;6277858;22;20040;-77
2021/12/04 00:22:31;;;;;;;69.10;31.85;;;4.60;99.90;;;;;;6250249;22;20339;-77
2021/12/04 00:24:57;;;;;;;61.85;31.02;;;4.50;99.90;;;;;;6278101;22;20015;-76
2021/12/04 00:27:23;;;;;;;62.42;28.52;;;4.60;99.90;;;;;;6276739;22;20007;-77
2021/12/04 00:29:48;;;;;;;67.22;31.27;;;4.60;99.90;;;;;;6277561;22;20015;-77
2021/12/04 00:32:21;;;;;;;72.72;33.15;;;4.60;99.90;;;;;;6278251;22;20043;-76
2021/12/04 00:34:53;;;;;;;74.43;32.75;;;4.60;99.90;;;;;;6278273;22;20318;-76
2021/12/04 00:50:54;;;;;;;90.18;34.40;;;4.50;99.90;;;;;;6277889;22;20035;-76
2021/12/04 00:53:19;;;;;;;79.00;32.85;;;4.50;99.90;;;;;;6250802;22;20093;-76
2021/12/04 00:55:45;;;;;;;85.28;32.30;;;4.50;99.90;;;;;;6276525;22;20011;-77
2021/12/04 00:58:11;;;;;;;84.95;32.88;;;4.50;99.90;;;;;;6251015;22;20019;-76
2021/12/04 01:00:38;;;;;;;78.53;32.80;;;4.50;99.90;;;;;;6277229;22;20343;-77
2021/12/04 01:03:04;;;;;;;73.25;30.98;;;4.50;99.90;;;;;;6250715;22;20026;-77
2021/12/04 01:05:29;;;;;;;79.38;31.90;;;4.50;99.90;;;;;;6303963;22;20015;-77
2021/12/04 01:07:55;;;;;;;85.68;34.05;;;4.50;99.90;;;;;;6275954;22;20427;-77
2021/12/04 01:10:21;;;;;;;87.43;34.17;;;4.50;99.90;;;;;;6276586;22;20015;-77
2021/12/04 01:12:49;;;;;;;85.80;31.75;;;4.50;99.90;;;;;;6250872;22;20015;-77
2021/12/04 01:15:15;;;;;;;84.30;34.15;;;4.50;99.90;;;;;;6276879;22;20090;-77
2021/12/04 01:17:40;;;;;;;86.00;33.13;;;4.60;99.90;;;;;;6275647;22;20454;-77
2021/12/04 01:20:07;;;;;;;93.47;33.40;;;4.50;99.90;;;;;;6277804;22;20015;-77
2021/12/04 01:22:33;;;;;;;86.40;33.95;;;4.50;99.90;;;;;;6276841;22;20015;-77
2021/12/04 01:25:00;;;;;;;87.20;33.80;;;4.50;99.90;;;;;;6277697;22;20331;-77
2021/12/04 01:27:26;;;;;;;90.70;33.75;;;4.50;99.90;;;;;;6277500;22;20069;-77
2021/12/04 01:29:52;;;;;;;84.95;33.75;;;4.50;99.90;;;;;;6277864;22;20043;-77
2021/12/04 01:32:18;;;;;;;89.53;33.42;;;4.50;99.90;;;;;;6251769;22;20021;-77
2021/12/04 01:34:44;;;;;;;93.65;34.92;;;4.50;99.90;;;;;;6277471;22;20045;-77
2021/12/04 01:37:09;;;;;;;85.25;33.08;;;4.50;99.90;;;;;;6250943;22;20040;-77
2021/12/04 01:39:35;;;;;;;92.07;34.58;;;4.50;99.90;;;;;;6251456;22;20090;-77
2021/12/04 01:42:01;;;;;;;88.57;30.15;;;4.50;99.90;;;;;;6278083;22;20104;-77
2021/12/04 01:44:26;;;;;;;89.90;32.20;;;4.50;99.90;;;;;;6277129;22;20030;-76
2021/12/04 01:46:56;;;;;;;98.57;34.33;;;4.50;99.90;;;;;;6277183;22;20021;-77
2021/12/04 01:49:23;;;;;;;93.15;31.73;;;4.50;99.90;;;;;;6276845;22;20007;-77
2021/12/04 01:51:49;;;;;;;101.30;33.20;;;4.50;99.90;;;;;;6277165;22;20029;-77
2021/12/04 01:54:15;;;;;;;89.75;32.47;;;4.50;99.90;;;;;;6250996;22;20664;-77
2021/12/04 01:56:40;;;;;;;93.35;31.73;;;4.60;99.90;;;;;;6277143;22;20015;-77
2021/12/04 01:59:06;;;;;;;100.88;33.55;;;4.50;99.90;;;;;;6277357;22;20022;-77
2021/12/04 02:01:33;;;;;;;97.75;33.47;;;4.50;99.90;;;;;;6251967;22;20094;-77
2021/12/04 02:03:59;;;;;;;91.72;33.47;;;4.50;99.90;;;;;;6251445;22;20022;-77
2021/12/04 02:06:24;;;;;;;94.35;33.17;;;4.50;99.90;;;;;;6250614;22;20023;-77
2021/12/04 02:08:51;;;;;;;93.65;32.17;;;4.50;99.90;;;;;;6276058;22;20029;-76
2021/12/04 02:11:17;;;;;;;99.78;33.15;;;4.50;99.90;;;;;;6277031;22;20050;-77
2021/12/04 02:13:42;;;;;;;99.40;31.98;;;4.50;99.90;;;;;;6277476;22;20003;-76
2021/12/04 02:16:20;;;;;;;111.90;32.88;;;4.50;99.90;;;;;;6277761;22;20015;-77
2021/12/04 02:18:46;;;;;;;94.72;32.05;;;4.50;99.90;;;;;;6277020;22;20072;-77
2021/12/04 02:21:13;;;;;;;101.70;33.17;;;4.50;99.90;;;;;;6277416;22;20341;-77
2021/12/04 02:23:38;;;;;;;112.35;33.90;;;4.50;99.90;;;;;;6276454;22;20048;-76
2021/12/04 02:26:04;;;;;;;91.55;32.78;;;4.50;99.90;;;;;;6249723;22;20026;-77
2021/12/04 02:28:30;;;;;;;98.57;30.98;;;4.50;99.90;;;;;;6276310;22;20011;-77
2021/12/04 02:30:56;;;;;;;105.43;33.70;;;4.50;99.90;;;;;;6277394;22;20377;-77
2021/12/04 02:33:22;;;;;;;113.95;34.67;;;4.50;99.90;;;;;;6277028;22;20012;-77
2021/12/04 02:35:53;;;;;;;113.63;33.20;;;4.50;99.90;;;;;;6276239;22;20303;-76
2021/12/04 02:38:23;;;;;;;117.95;32.22;;;4.50;99.90;;;;;;6275944;22;20015;-76
2021/12/04 02:40:50;;;;;;;94.95;32.08;;;4.50;99.90;;;;;;6276637;22;20082;-76
2021/12/04 02:43:16;;;;;;;98.95;31.92;;;4.50;99.90;;;;;;6251046;22;20091;-77
2021/12/04 02:45:43;;;;;;;106.60;31.27;;;4.50;99.90;;;;;;6277030;22;20400;-77
2021/12/04 02:48:09;;;;;;;85.22;30.48;;;4.50;99.90;;;;;;6276172;22;20373;-76
2021/12/04 02:50:35;;;;;;;100.70;30.98;;;4.50;99.90;;;;;;6276328;22;20094;-77
2021/12/04 02:53:01;;;;;;;94.82;31.27;;;4.50;99.90;;;;;;6275422;22;20038;-76
2021/12/04 02:55:26;;;;;;;94.18;30.15;;;4.50;99.90;;;;;;6251040;22;20264;-77
2021/12/04 02:57:52;;;;;;;97.57;30.02;;;4.50;99.90;;;;;;6250588;22;20042;-76
2021/12/04 03:00:22;;;;;;;85.20;30.83;;;4.50;99.90;;;;;;6250941;22;20015;-77
2021/12/04 03:02:48;;;;;;;88.88;29.42;;;4.70;99.90;;;;;;6251105;22;20019;-77
2021/12/04 03:05:14;;;;;;;92.47;30.20;;;4.50;99.90;;;;;;6275010;22;20106;-76
2021/12/04 03:07:40;;;;;;;93.35;29.75;;;4.50;99.90;;;;;;6275629;22;20046;-77
2021/12/04 03:10:08;;;;;;;86.32;28.85;;;4.60;99.90;;;;;;6276680;22;20018;-77
2021/12/04 03:12:35;;;;;;;85.65;27.33;;;4.40;99.90;;;;;;6275772;22;20045;-77
2021/12/04 03:15:01;;;;;;;88.25;28.35;;;4.50;99.90;;;;;;6250879;22;20030;-77
2021/12/04 03:17:27;;;;;;;88.93;28.17;;;4.50;99.90;;;;;;6276372;22;20015;-77
2021/12/04 03:19:53;;;;;;;86.13;28.73;;;4.40;99.90;;;;;;6276683;22;20083;-77
2021/12/04 03:22:22;;;;;;;92.95;28.88;;;4.50;99.90;;;;;;6250426;22;20037;-77
2021/12/04 03:24:48;;;;;;;88.30;28.80;;;4.50;99.90;;;;;;6275051;22;20102;-77
2021/12/04 03:27:16;;;;;;;90.22;29.20;;;4.50;99.90;;;;;;6275534;22;20127;-77
2021/12/04 03:29:47;;;;;;;90.00;29.90;;;4.50;99.90;;;;;;6275840;22;20361;-77
2021/12/04 03:42:38;;;;;;;70.45;26.38;;;4.50;99.90;;;;;;6276137;22;20069;-77
2021/12/04 03:45:06;;;;;;;62.60;24.08;;;4.50;99.90;;;;;;6276457;22;20013;-77
2021/12/04 03:47:32;;;;;;;67.95;24.58;;;4.50;99.90;;;;;;6276422;22;20015;-77
2021/12/04 03:49:57;;;;;;;64.90;24.25;;;4.40;99.90;;;;;;6250969;22;20022;-77
2021/12/04 03:52:23;;;;;;;66.15;23.73;;;4.40;99.90;;;;;;6276487;22;20018;-77
2021/12/04 03:54:49;;;;;;;64.28;24.45;;;4.40;99.90;;;;;;6250264;22;20015;-77
2021/12/04 03:57:15;;;;;;;65.55;24.55;;;4.40;99.90;;;;;;6276879;22;20022;-77
2021/12/04 03:59:45;;;;;;;70.03;24.58;;;4.40;99.90;;;;;;6276874;22;20019;-77
2021/12/04 04:02:12;;;;;;;74.32;25.45;;;4.40;99.90;;;;;;6276647;22;20082;-76
2021/12/04 04:04:39;;;;;;;60.75;23.60;;;4.40;99.90;;;;;;6275987;22;20019;-77
2021/12/04 04:07:05;;;;;;;61.95;23.48;;;4.40;99.90;;;;;;6249971;22;20359;-77
2021/12/04 04:09:32;;;;;;;62.45;24.42;;;4.40;99.90;;;;;;6275661;22;20086;-76
2021/12/04 04:11:58;;;;;;;58.72;22.75;;;4.40;99.90;;;;;;6276359;22;20007;-76
2021/12/04 04:14:24;;;;;;;60.28;23.48;;;4.40;99.90;;;;;;6252023;22;20016;-77
2021/12/04 04:16:53;;;;;;;73.40;24.25;;;4.40;99.90;;;;;;6251065;22;20410;-76
2021/12/04 04:19:20;;;;;;;67.88;23.70;;;4.40;99.90;;;;;;6252480;22;20023;-77
2021/12/04 04:21:46;;;;;;;59.08;23.25;;;4.40;99.90;;;;;;6278132;22;20445;-77
2021/12/04 04:24:15;;;;;;;63.70;22.63;;;4.40;99.90;;;;;;6277989;22;20018;-76
2021/12/04 04:26:42;;;;;;;57.20;22.08;;;4.50;99.90;;;;;;6277643;22;20401;-77
2021/12/04 04:29:08;;;;;;;64.10;21.33;;;4.40;99.90;;;;;;6252664;22;20007;-77
2021/12/04 04:31:36;;;;;;;49.60;21.92;;;4.40;99.90;;;;;;6305834;22;20065;-77
2021/12/04 04:34:06;;;;;;;52.33;21.55;;;4.40;99.90;;;;;;6277917;22;20015;-77
2021/12/04 05:11:56;;;;;;;60.00;21.13;;;4.40;99.90;;;;;;6277565;22;20043;-77
2021/12/04 05:14:21;;;;;;;59.95;20.98;;;4.40;99.90;;;;;;6277542;22;20333;-77
2021/12/04 05:16:51;;;;;;;56.55;20.73;;;4.40;99.90;;;;;;6277705;22;20164;-77
2021/12/04 05:19:38;;;;;;;57.83;22.00;;;4.40;99.90;;;;;;6277200;22;20068;-77
2021/12/04 05:22:05;;;;;;;64.90;21.50;;;4.40;99.90;;;;;;6277545;22;20023;-76
2021/12/04 05:24:31;;;;;;;66.57;20.55;;;4.40;99.90;;;;;;6276655;22;20019;-77
2021/12/04 05:26:57;;;;;;;68.65;21.60;;;4.40;99.90;;;;;;6276705;22;20037;-77
2021/12/04 05:29:23;;;;;;;67.55;20.75;;;4.40;99.90;;;;;;6277746;22;20379;-76
2021/12/04 05:31:49;;;;;;;60.38;21.10;;;4.40;99.90;;;;;;6251528;22;20019;-77
2021/12/04 05:34:15;;;;;;;48.50;18.33;;;4.40;99.90;;;;;;6276285;22;20011;-77
2021/12/04 05:36:41;;;;;;;57.72;20.83;;;4.40;99.90;;;;;;6276935;22;20493;-77
2021/12/04 05:39:07;;;;;;;56.08;20.05;;;4.40;99.90;;;;;;6304054;22;20034;-77
2021/12/04 05:41:33;;;;;;;52.78;20.38;;;4.40;99.90;;;;;;6277618;22;20015;-77
2021/12/04 05:44:04;;;;;;;52.42;18.98;;;4.50;99.90;;;;;;6276507;22;20176;-77
2021/12/04 05:46:38;;;;;;;49.13;19.27;;;4.40;99.90;;;;;;6251251;22;20034;-77
2021/12/04 05:49:12;;;;;;;47.97;19.17;;;4.40;99.90;;;;;;6277199;22;20338;-77
2021/12/04 05:57:01;;;;;;;51.22;19.52;;;4.40;99.90;;;;;;6276808;22;20632;-76
2021/12/04 05:59:27;;;;;;;53.03;19.50;;;4.40;99.90;;;;;;6277019;22;20022;-75
2021/12/04 06:01:53;;;;;;;56.72;20.50;;;4.40;99.90;;;;;;6277117;22;20072;-76
2021/12/04 06:04:18;;;;;;;46.13;20.00;;;4.40;99.90;;;;;;6276822;22;20015;-76
2021/12/04 06:06:44;;;;;;;55.13;19.75;;;4.40;99.90;;;;;;6276393;22;20439;-76
2021/12/04 06:09:10;;;;;;;52.63;19.58;;;4.40;99.90;;;;;;6251369;22;20011;-75
2021/12/04 06:11:36;;;;;;;47.85;19.33;;;4.40;99.90;;;;;;6251409;22;20086;-76
2021/12/04 06:14:03;;;;;;;51.83;19.15;;;4.40;99.90;;;;;;6251418;22;20431;-75
2021/12/04 06:16:29;;;;;;;50.08;18.70;;;4.40;99.90;;;;;;6251916;22;20049;-76
2021/12/04 06:18:57;;;;;;;50.95;19.02;;;4.40;99.90;;;;;;6251346;22;20023;-75
2021/12/04 06:24:07;;;;;;;55.47;19.67;;;4.30;99.90;;;;;;6276448;22;20019;-78
2021/12/04 06:26:35;;;;;;;50.83;19.67;;;4.30;99.90;;;;;;6276827;22;20439;-78
2021/12/04 06:29:01;;;;;;;48.53;19.23;;;4.30;99.90;;;;;;6276383;22;20018;-75
2021/12/04 06:31:27;;;;;;;56.63;20.13;;;4.30;99.90;;;;;;6275479;22;20011;-75
2021/12/04 06:33:53;;;;;;;53.42;19.77;;;4.30;99.90;;;;;;6250288;22;20011;-75
2021/12/04 06:36:21;;;;;;;57.10;19.08;;;4.30;99.90;;;;;;6274266;22;20011;-75
2021/12/04 06:38:47;;;;;;;50.05;18.83;;;4.30;99.90;;;;;;6248995;22;20026;-75
2021/12/04 06:41:14;;;;;;;55.70;20.13;;;4.30;99.90;;;;;;6275710;22;20045;-77
2021/12/04 06:43:45;;;;;;;47.70;17.48;;;4.40;99.90;;;;;;6251204;22;20427;-75
2021/12/04 06:46:11;;;;;;;48.15;18.45;;;4.60;99.90;;;;;;6276751;22;20308;-76
2021/12/04 06:49:02;;;;;;;48.78;18.05;;;4.50;99.90;;;;;;6276516;22;20076;-76
2021/12/04 06:56:32;;;;;;;57.50;21.00;;;4.40;99.90;;;;;;6275189;22;20070;-76
2021/12/04 06:58:57;;;;;;;59.30;20.30;;;4.40;99.90;;;;;;6276589;22;20041;-76
2021/12/04 07:01:23;;;;;;;57.40;21.10;;;4.40;99.90;;;;;;6276891;22;20015;-76
2021/12/04 07:03:51;;;;;;;69.97;21.55;;;4.40;99.90;;;;;;6250956;22;20015;-76
2021/12/04 07:06:16;;;;;;;75.95;22.00;;;4.40;99.90;;;;;;6275851;22;20019;-76
2021/12/04 07:08:42;;;;;;;78.13;20.58;;;4.40;99.90;;;;;;6275754;22;20094;-80
2021/12/04 07:11:08;;;;;;;67.93;21.33;;;4.30;99.90;;;;;;6251639;22;20043;-76
2021/12/04 07:13:34;;;;;;;64.28;20.58;;;4.40;99.90;;;;;;6251380;22;20011;-76
2021/12/04 07:16:04;;;;;;;64.90;22.40;;;4.40;99.90;;;;;;6276877;22;20395;-75
2021/12/04 07:18:31;;;;;;;67.88;20.52;;;4.40;99.90;;;;;;6276657;22;20007;-75
2021/12/04 07:20:57;;;;;;;75.15;20.80;;;4.40;99.90;;;;;;6276980;22;20011;-76
2021/12/04 07:23:23;;;;;;;59.00;21.08;;;4.30;99.90;;;;;;6248949;22;20458;-76
2021/12/04 07:25:49;;;;;;;57.33;20.55;;;4.40;99.90;;;;;;6277245;22;20029;-76
2021/12/04 07:28:14;;;;;;;62.72;21.23;;;4.30;99.90;;;;;;6251177;22;20027;-76
2021/12/04 07:30:40;;;;;;;66.15;21.17;;;4.30;99.90;;;;;;6276761;22;20007;-75
2021/12/04 07:33:06;;;;;;;54.25;18.98;;;4.30;99.90;;;;;;6250585;22;20045;-76
2021/12/04 07:35:31;;;;;;;46.85;17.25;;;4.30;99.90;;;;;;6276706;22;20015;-76
2021/12/04 07:37:57;;;;;;;55.63;20.15;;;4.80;99.90;;;;;;6275792;22;20012;-76
2021/12/04 07:40:24;;;;;;;56.85;20.35;;;4.60;99.90;;;;;;6276784;22;20331;-76
2021/12/04 07:42:50;;;;;;;52.65;19.92;;;4.50;99.90;;;;;;6276167;22;20011;-77
2021/12/04 07:45:15;;;;;;;62.22;20.73;;;4.40;99.90;;;;;;6250852;22;20333;-75
2021/12/04 07:47:41;;;;;;;60.78;20.45;;;4.40;99.90;;;;;;6277114;22;20011;-76
2021/12/04 07:50:09;;;;;;;64.22;20.45;;;4.40;99.90;;;;;;6252936;22;20061;-75
2021/12/04 07:52:35;;;;;;;63.78;20.77;;;4.40;99.90;;;;;;6251808;22;20372;-75
2021/12/04 07:55:02;;;;;;;65.80;20.33;;;4.40;99.90;;;;;;6278287;22;20015;-76
2021/12/04 07:57:27;;;;;;;67.60;20.83;;;4.40;99.90;;;;;;6250269;22;20015;-76
2021/12/04 07:59:53;;;;;;;58.15;21.05;;;4.40;99.90;;;;;;6276777;22;20027;-76
2021/12/04 08:02:19;;;;;;;72.22;21.65;;;4.40;99.90;;;;;;6277470;22;20015;-77
2021/12/04 08:04:45;;;;;;;63.47;20.23;;;4.40;99.90;;;;;;6277528;22;20011;-76
2021/12/04 08:07:11;;;;;;;57.80;20.60;;;4.40;99.90;;;;;;6277679;22;20015;-77
2021/12/04 08:09:37;;;;;;;67.53;21.50;;;4.40;99.90;;;;;;6277351;22;20025;-78
2021/12/04 08:12:03;;;;;;;69.30;22.10;;;4.40;99.90;;;;;;6278915;22;20426;-78
2021/12/04 08:14:29;;;;;;;57.80;19.90;;;4.40;99.90;;;;;;6278147;22;20073;-77
2021/12/04 08:16:54;;;;;;;70.50;21.80;;;4.40;99.90;;;;;;6278348;22;20015;-78
2021/12/04 08:19:20;;;;;;;59.40;20.38;;;4.40;99.90;;;;;;6277928;22;20144;-78
2021/12/04 08:21:45;;;;;;;53.80;19.98;;;4.40;99.90;;;;;;6249188;22;20085;-76
2021/12/04 08:24:11;;;;;;;53.30;19.83;;;4.60;99.90;;;;;;6251808;22;20015;-77
2021/12/04 08:26:38;;;;;;;59.60;20.38;;;4.40;99.90;;;;;;6276857;22;20051;-77
2021/12/04 08:29:05;;;;;;;56.50;20.10;;;4.40;99.90;;;;;;6275830;22;20011;-77
2021/12/04 08:31:30;;;;;;;58.15;20.15;;;4.40;99.90;;;;;;6276332;22;20091;-80
2021/12/04 08:33:56;;;;;;;51.25;18.65;;;4.40;99.90;;;;;;6277153;22;20011;-77
2021/12/04 08:36:22;;;;;;;50.42;19.92;;;4.50;99.90;;;;;;6250670;22;20023;-76
2021/12/04 08:38:48;;;;;;;52.75;20.63;;;4.50;99.90;;;;;;6249588;22;20015;-79
2021/12/04 08:41:16;;;;;;;46.72;18.88;;;4.50;99.90;;;;;;6251448;22;20371;-81
2021/12/04 08:43:42;;;;;;;46.75;17.35;;;4.50;99.90;;;;;;6252393;22;20062;-80
2021/12/04 08:46:08;;;;;;;42.78;16.35;;;4.70;99.90;;;;;;6251544;22;20023;-78
2021/12/04 08:48:34;;;;;;;32.13;16.67;;;4.50;99.90;;;;;;6251193;22;20058;-78
2021/12/04 08:51:00;;;;;;;38.60;16.95;;;5.60;99.90;;;;;;6277904;22;20003;-79
2021/12/04 08:53:30;;;;;;;35.63;16.50;;;5.10;99.90;;;;;;6250376;22;20015;-79
2021/12/04 08:55:56;;;;;;;35.75;16.42;;;5.00;99.90;;;;;;6277798;22;20019;-79
2021/12/04 08:58:22;;;;;;;37.17;16.88;;;5.40;99.90;;;;;;6277081;22;20110;-78
2021/12/04 09:00:53;;;;;;;40.58;17.13;;;4.90;99.90;;;;;;6252388;22;20023;-77
2021/12/04 09:03:30;;;;;;;38.78;17.00;;;4.80;99.90;;;;;;6252345;22;20104;-76
2021/12/04 09:05:57;;;;;;;31.15;15.85;;;4.80;99.90;;;;;;6252092;22;20015;-78
2021/12/04 09:08:24;;;;;;;37.65;16.08;;;4.80;99.90;;;;;;6277199;22;20051;-75
2021/12/04 09:10:52;;;;;;;39.22;16.90;;;5.40;99.90;;;;;;6278817;22;20087;-78
2021/12/04 09:13:18;;;;;;;36.08;15.88;;;4.70;99.90;;;;;;6251612;22;20065;-77
2021/12/04 09:15:44;;;;;;;34.00;15.00;;;4.70;99.90;;;;;;6277200;22;20050;-78
2021/12/04 09:18:10;;;;;;;34.13;14.77;;;4.80;99.90;;;;;;6304625;22;20072;-77
2021/12/04 09:24:59;;;;;;;31.83;13.77;;;4.70;99.90;;;;;;6304590;22;20010;-79
2021/12/04 09:27:48;;;;;;;33.08;14.38;;;4.60;99.90;;;;;;6277089;22;20023;-80
2021/12/04 10:04:58;;;;;;;19.95;12.60;;;4.80;99.90;;;;;;5816503;24;20045;-79
2021/12/04 10:33:22;;;;;;;19.20;11.77;;;4.60;99.90;;;;;;5864240;24;20302;-79
2021/12/04 11:38:23;;;;;;;19.20;11.55;;;5.40;99.90;;;;;;4648344;30;20155;-79
2021/12/04 11:43:18;;;;;;;21.02;11.35;;;5.40;99.90;;;;;;4718746;30;20450;-79
2021/12/04 11:48:40;;;;;;;21.67;12.15;;;5.40;99.90;;;;;;4780720;29;20479;-78
2021/12/04 11:51:16;;;;;;;18.42;11.45;;;5.50;99.90;;;;;;4851444;29;20129;-83
2021/12/04 11:53:43;;;;;;;18.50;11.98;;;5.50;99.90;;;;;;4852236;29;20612;-80
2021/12/04 11:56:17;;;;;;;17.55;11.85;;;5.50;99.90;;;;;;4871347;29;20420;-80
2021/12/04 11:58:46;;;;;;;13.32;8.93;;;5.50;99.90;;;;;;4932157;28;20058;-78
2021/12/04 12:01:38;;;;;;;22.38;11.82;;;5.80;99.90;;;;;;4940180;28;20047;-78
2021/12/04 12:04:10;;;;;;;17.45;11.38;;;5.70;99.90;;;;;;4935856;28;20047;-79
2021/12/04 12:06:40;;;;;;;18.30;11.20;;;5.60;99.90;;;;;;4921924;29;20055;-81
2021/12/04 12:09:32;;;;;;;18.13;11.27;;;5.60;99.90;;;;;;4988595;28;20183;-83
2021/12/04 12:12:04;;;;;;;20.38;12.38;;;5.60;99.90;;;;;;5035230;28;20423;-82
2021/12/04 12:14:40;;;;;;;21.23;12.93;;;5.50;99.90;;;;;;5033484;28;20044;-83
2021/12/04 12:17:07;;;;;;;21.27;12.63;;;5.50;99.90;;;;;;5048058;28;20041;-79
2021/12/04 12:19:39;;;;;;;25.08;13.75;;;5.50;99.90;;;;;;5025309;28;20047;-82
2021/12/04 12:31:42;;;;;;;21.83;13.15;;;5.50;99.90;;;;;;5041487;28;20037;-80
2021/12/04 12:38:15;;;;;;;23.90;14.13;;;5.50;99.90;;;;;;5041495;28;20547;-80
2021/12/04 12:41:19;;;;;;;23.30;13.77;;;5.50;99.90;;;;;;5036702;28;20049;-80
2021/12/04 12:48:13;;;;;;;26.58;14.10;;;5.60;99.90;;;;;;5006081;28;20056;-80
2021/12/04 12:57:44;;;;;;;25.98;15.43;;;5.50;99.90;;;;;;4990224;28;20133;-80
2021/12/04 13:11:48;;;;;;;33.33;16.08;;;5.30;99.90;;;;;;4916206;29;20123;-80
2021/12/04 13:14:29;;;;;;;;;;;;;;;;;;;;;
2021/12/04 13:24:28;;;;;;;33.00;17.02;;;5.40;99.90;;;;;;4942049;29;20059;-81
2021/12/04 13:30:16;;;;;;;33.05;16.67;;;4.90;99.90;;;;;;4947711;28;20098;-80
2021/12/04 13:33:23;;;;;;;31.67;17.85;;;6.30;99.90;;;;;;4872845;29;20160;-78
2021/12/04 13:39:42;;;;;;;36.63;18.75;;;5.30;99.90;;;;;;4838514;29;20084;-77
2021/12/04 13:42:08;;;;;;;36.95;19.40;;;5.50;99.90;;;;;;4826431;29;20126;-79
2021/12/04 13:44:37;;;;;;;37.53;19.23;;;5.40;99.90;;;;;;4829574;29;20065;-78
2021/12/04 13:47:06;;;;;;;36.38;18.38;;;5.40;99.90;;;;;;4847068;29;20164;-77
2021/12/04 13:49:47;;;;;;;42.65;20.58;;;5.40;99.90;;;;;;4837304;29;20050;-81
2021/12/04 13:52:13;;;;;;;46.35;21.35;;;5.40;99.90;;;;;;4868618;29;20049;-80
2021/12/04 13:54:46;;;;;;;42.58;20.92;;;5.40;99.90;;;;;;4890802;29;20049;-79
2021/12/04 13:57:13;;;;;;;39.90;19.90;;;5.40;99.90;;;;;;4860369;29;20097;-80
2021/12/04 13:59:40;;;;;;;42.58;19.65;;;5.40;99.90;;;;;;4891587;29;20526;-80
2021/12/04 14:02:06;;;;;;;39.90;19.90;;;5.40;99.90;;;;;;4873306;29;20045;-79
2021/12/04 14:04:32;;;;;;;41.03;20.20;;;5.40;99.90;;;;;;4883889;29;20104;-81
2021/12/04 14:07:01;;;;;;;42.25;20.70;;;5.40;99.90;;;;;;4923709;29;20054;-80
2021/12/04 14:09:38;;;;;;;46.35;21.48;;;5.40;99.90;;;;;;4995717;28;20516;-79
2021/12/04 14:12:06;;;;;;;44.75;22.10;;;5.40;99.90;;;;;;5016910;28;20049;-81
2021/12/04 14:14:34;;;;;;;46.55;21.13;;;5.40;99.90;;;;;;5036909;28;20041;-80
2021/12/04 14:17:10;;;;;;;48.15;22.70;;;5.50;99.90;;;;;;5028225;28;20048;-79
2021/12/04 14:19:37;;;;;;;52.50;22.73;;;5.40;99.90;;;;;;5030302;28;20044;-81
2021/12/04 14:22:09;;;;;;;56.28;22.90;;;5.30;99.90;;;;;;5027803;28;20132;-78
2021/12/04 14:24:49;;;;;;;52.22;22.75;;;5.30;99.90;;;;;;5041467;28;20049;-80
2021/12/04 14:27:21;;;;;;;51.65;23.00;;;5.30;99.90;;;;;;5027840;28;20044;-79
2021/12/04 14:29:50;;;;;;;54.40;24.08;;;5.30;99.90;;;;;;5021443;28;20048;-79
2021/12/04 14:32:21;;;;;;;50.15;23.38;;;5.30;99.90;;;;;;5029648;28;20477;-79
2021/12/04 14:34:47;;;;;;;55.75;23.80;;;5.30;99.90;;;;;;5022476;28;20039;-77
2021/12/04 14:37:15;;;;;;;52.85;23.83;;;5.30;99.90;;;;;;5011596;28;20380;-79
2021/12/04 14:39:45;;;;;;;56.58;24.92;;;5.30;99.90;;;;;;5003522;28;20044;-78
2021/12/04 14:43:06;;;;;;;;;;;;;;;;;;;;;
2021/12/04 14:50:55;;;;;;;61.50;24.83;;;4.90;99.90;;;;;;4926694;29;20583;-79
2021/12/04 14:53:34;;;;;;;59.83;23.88;;;5.40;99.90;;;;;;4907848;29;20070;-80
2021/12/04 14:56:04;;;;;;;59.00;24.27;;;6.00;99.90;;;;;;4910814;29;20658;-80
2021/12/04 14:58:30;;;;;;;57.95;24.77;;;5.30;99.90;;;;;;4895027;29;20048;-81
2021/12/04 15:01:06;;;;;;;55.33;25.23;;;5.30;99.90;;;;;;4893862;29;20163;-80
2021/12/04 15:03:34;;;;;;;59.17;23.95;;;5.30;99.90;;;;;;4891565;29;20100;-82
2021/12/04 15:06:06;;;;;;;57.28;26.67;;;5.30;99.90;;;;;;4892993;29;20048;-81
2021/12/04 15:12:31;;;;;;;57.13;23.83;;;5.20;99.90;;;;;;4907726;29;20039;-80
2021/12/04 15:18:19;;;;;;;65.57;26.23;;;5.00;99.90;;;;;;4884258;29;19919;-80
2021/12/04 15:21:05;;;;;;;58.42;25.88;;;5.40;99.90;;;;;;4887012;29;20128;-82
2021/12/04 15:23:35;;;;;;;71.15;27.70;;;5.70;99.90;;;;;;4886554;29;20080;-80
2021/12/04 15:26:09;;;;;;;69.15;28.58;;;5.20;99.90;;;;;;4975946;28;20081;-82
2021/12/04 15:28:46;;;;;;;71.38;26.25;;;5.90;99.90;;;;;;4985749;28;20054;-80
2021/12/04 15:31:13;;;;;;;72.45;28.67;;;5.20;99.90;;;;;;4987240;28;20045;-80
2021/12/04 15:33:43;;;;;;;77.05;29.08;;;5.70;99.90;;;;;;4970971;28;20053;-80
2021/12/04 15:36:25;;;;;;;76.00;29.25;;;5.20;99.90;;;;;;4972731;28;20046;-78
2021/12/04 15:38:52;;;;;;;71.47;28.30;;;5.20;99.90;;;;;;4966963;28;20054;-78
2021/12/04 15:46:58;;;;;;;79.57;28.52;;;5.20;99.90;;;;;;4995267;28;20049;-80
2021/12/04 15:55:25;;;;;;;70.20;29.10;;;5.20;99.90;;;;;;5033006;28;20119;-82
2021/12/04 15:57:56;;;;;;;75.07;30.45;;;5.10;99.90;;;;;;5035581;28;20043;-79
2021/12/04 16:00:26;;;;;;;73.20;31.35;;;5.10;99.90;;;;;;5048472;28;20483;-79
2021/12/04 16:02:56;;;;;;;74.47;30.95;;;5.10;99.90;;;;;;5046648;28;20047;-79
2021/12/04 16:05:25;;;;;;;76.28;30.98;;;5.10;99.90;;;;;;5046440;28;20436;-80
2021/12/04 16:08:07;;;;;;;68.70;30.77;;;5.20;99.90;;;;;;5040287;28;20044;-79
2021/12/04 16:10:36;;;;;;;74.57;33.53;;;5.10;99.90;;;;;;5042447;28;20032;-79
2021/12/04 16:13:03;;;;;;;85.10;33.55;;;5.10;99.90;;;;;;5025472;28;20492;-79
2021/12/04 16:15:30;;;;;;;76.10;32.40;;;5.10;99.90;;;;;;5037583;28;20049;-80
2021/12/04 16:17:55;;;;;;;68.43;31.80;;;5.00;99.90;;;;;;5029757;28;20044;-79
2021/12/04 16:20:23;;;;;;;79.68;33.42;;;5.10;99.90;;;;;;5060987;28;20498;-79
2021/12/04 16:22:50;;;;;;;83.40;33.20;;;5.10;99.90;;;;;;5043917;28;20068;-79
2021/12/04 16:25:21;;;;;;;82.97;33.58;;;5.20;99.90;;;;;;5043446;28;20036;-78
2021/12/04 16:30:29;;;;;;;88.20;35.45;;;5.10;99.90;;;;;;5044459;28;20103;-78
2021/12/04 16:37:55;;;;;;;90.85;34.38;;;5.10;99.90;;;;;;5036692;28;20155;-80
2021/12/04 16:40:35;;;;;;;94.55;33.40;;;5.10;99.90;;;;;;5047078;28;20040;-81
2021/12/04 16:43:11;;;;;;;86.55;34.35;;;5.00;99.90;;;;;;5037553;28;20457;-79
2021/12/04 16:45:45;;;;;;;86.85;33.95;;;5.10;99.90;;;;;;5041415;28;20055;-81
2021/12/04 16:48:12;;;;;;;92.13;33.53;;;5.10;99.90;;;;;;5028831;28;20143;-81
2021/12/04 16:58:57;;;;;;;70.53;30.35;;;5.10;99.90;;;;;;5045257;28;20044;-81
2021/12/04 17:01:23;;;;;;;74.78;31.33;;;5.40;99.90;;;;;;5049946;28;20154;-80
2021/12/04 17:03:49;;;;;;;78.43;32.22;;;5.00;99.90;;;;;;5028954;28;20068;-80
2021/12/04 17:06:15;;;;;;;71.00;30.13;;;5.00;99.90;;;;;;5035194;28;20040;-80
2021/12/04 17:08:41;;;;;;;77.55;32.33;;;5.10;99.90;;;;;;5044503;28;20040;-80
2021/12/04 17:11:07;;;;;;;82.47;32.00;;;5.00;99.90;;;;;;5040994;28;20053;-80
2021/12/04 17:13:33;;;;;;;80.38;32.38;;;5.10;99.90;;;;;;5037909;28;20503;-81
2021/12/04 17:15:59;;;;;;;84.30;32.30;;;5.10;99.90;;;;;;5022241;28;20053;-81
2021/12/04 17:18:26;;;;;;;71.53;29.98;;;5.10;99.90;;;;;;5040905;28;20118;-81
2021/12/04 17:20:56;;;;;;;72.15;30.05;;;5.10;99.90;;;;;;5039686;28;20102;-81
2021/12/04 17:23:23;;;;;;;83.88;32.20;;;5.10;99.90;;;;;;5029520;28;20117;-81
2021/12/04 17:25:50;;;;;;;67.35;30.20;;;5.10;99.90;;;;;;5043553;28;20036;-81
2021/12/04 17:28:16;;;;;;;72.22;30.63;;;5.10;99.90;;;;;;5045724;28;20127;-80
2021/12/04 17:30:43;;;;;;;80.57;31.70;;;5.10;99.90;;;;;;5056732;28;20139;-82
2021/12/04 17:33:11;;;;;;;81.97;33.50;;;5.10;99.90;;;;;;5039698;28;20120;-82
2021/12/04 17:35:37;;;;;;;69.28;30.05;;;5.20;99.90;;;;;;5059807;28;20419;-81
2021/12/04 17:38:04;;;;;;;83.03;31.35;;;5.10;99.90;;;;;;5024659;28;20195;-79
2021/12/04 17:40:34;;;;;;;63.33;28.95;;;5.10;99.90;;;;;;5025185;28;20120;-80